sensor_id;sensor_type;location;lat;lon;timestamp;P1;durP1;ratioP1;P2;durP2;ratioP2
8952;SDS011;4511;50.890;8.054;2023-11-21T00:01:54;11.07;;;8.33;;
8952;SDS011;4511;50.890;8.054;2023-11-21T00:04:23;14.23;;;9.27;;
8952;SDS011;4511;50.890;8.054;2023-11-21T00:06:50;15.20;;;8.13;;
8952;SDS011;4511;50.890;8.054;2023-11-21T00:09:16;14.47;;;7.87;;
8952;SDS011;4511;50.890;8.054;2023-11-21T00:11:43;11.67;;;8.07;;
8952;SDS011;4511;50.890;8.054;2023-11-21T00:14:10;9.47;;;6.73;;
8952;SDS011;4511;50.890;8.054;2023-11-21T00:16:37;12.00;;;8.47;;
8952;SDS011;4511;50.890;8.054;2023-11-21T00:19:04;10.73;;;8.00;;
8952;SDS011;4511;50.890;8.054;2023-11-21T00:21:32;12.50;;;8.03;;
8952;SDS011;4511;50.890;8.054;2023-11-21T00:23:59;10.20;;;8.30;;
8952;SDS011;4511;50.890;8.054;2023-11-21T00:26:26;20.03;;;9.17;;
8952;SDS011;4511;50.890;8.054;2023-11-21T00:28:53;30.50;;;9.90;;
8952;SDS011;4511;50.890;8.054;2023-11-21T00:31:20;13.07;;;8.57;;
8952;SDS011;4511;50.890;8.054;2023-11-21T00:33:47;15.20;;;8.87;;
8952;SDS011;4511;50.890;8.054;2023-11-21T00:36:14;12.00;;;7.80;;
8952;SDS011;4511;50.890;8.054;2023-11-21T00:38:43;9.20;;;6.27;;
8952;SDS011;4511;50.890;8.054;2023-11-21T00:41:09;8.30;;;5.87;;
8952;SDS011;4511;50.890;8.054;2023-11-21T00:43:36;4.73;;;4.30;;
8952;SDS011;4511;50.890;8.054;2023-11-21T00:46:03;4.53;;;3.50;;
8952;SDS011;4511;50.890;8.054;2023-11-21T00:48:32;5.87;;;3.70;;
8952;SDS011;4511;50.890;8.054;2023-11-21T00:50:59;6.07;;;4.37;;
8952;SDS011;4511;50.890;8.054;2023-11-21T00:53:25;8.57;;;6.40;;
8952;SDS011;4511;50.890;8.054;2023-11-21T00:55:54;10.67;;;6.90;;
8952;SDS011;4511;50.890;8.054;2023-11-21T00:58:22;8.77;;;7.30;;
8952;SDS011;4511;50.890;8.054;2023-11-21T01:00:48;9.83;;;8.00;;
8952;SDS011;4511;50.890;8.054;2023-11-21T01:03:15;10.63;;;7.63;;
8952;SDS011;4511;50.890;8.054;2023-11-21T01:05:42;10.43;;;8.57;;
8952;SDS011;4511;50.890;8.054;2023-11-21T01:08:09;8.33;;;6.60;;
8952;SDS011;4511;50.890;8.054;2023-11-21T01:10:36;8.93;;;7.03;;
8952;SDS011;4511;50.890;8.054;2023-11-21T01:13:04;9.73;;;7.50;;
8952;SDS011;4511;50.890;8.054;2023-11-21T01:15:32;9.77;;;7.40;;
8952;SDS011;4511;50.890;8.054;2023-11-21T01:17:59;10.80;;;7.53;;
8952;SDS011;4511;50.890;8.054;2023-11-21T01:20:26;9.70;;;7.30;;
8952;SDS011;4511;50.890;8.054;2023-11-21T01:22:52;10.03;;;7.00;;
8952;SDS011;4511;50.890;8.054;2023-11-21T01:25:20;11.60;;;8.07;;
8952;SDS011;4511;50.890;8.054;2023-11-21T01:27:47;10.90;;;7.63;;
8952;SDS011;4511;50.890;8.054;2023-11-21T01:30:15;8.97;;;7.33;;
8952;SDS011;4511;50.890;8.054;2023-11-21T01:32:42;8.97;;;7.17;;
8952;SDS011;4511;50.890;8.054;2023-11-21T01:35:09;8.47;;;6.90;;
8952;SDS011;4511;50.890;8.054;2023-11-21T01:37:36;10.47;;;7.47;;
8952;SDS011;4511;50.890;8.054;2023-11-21T01:40:03;11.43;;;7.80;;
8952;SDS011;4511;50.890;8.054;2023-11-21T01:42:35;9.60;;;6.80;;
8952;SDS011;4511;50.890;8.054;2023-11-21T01:45:01;8.33;;;6.80;;
8952;SDS011;4511;50.890;8.054;2023-11-21T01:47:31;12.37;;;8.00;;
8952;SDS011;4511;50.890;8.054;2023-11-21T01:50:00;10.33;;;7.70;;
8952;SDS011;4511;50.890;8.054;2023-11-21T01:52:27;8.17;;;7.00;;
8952;SDS011;4511;50.890;8.054;2023-11-21T01:54:54;10.77;;;7.00;;
8952;SDS011;4511;50.890;8.054;2023-11-21T01:57:21;9.63;;;6.37;;
8952;SDS011;4511;50.890;8.054;2023-11-21T01:59:48;12.17;;;7.57;;
8952;SDS011;4511;50.890;8.054;2023-11-21T02:02:15;12.43;;;6.70;;
8952;SDS011;4511;50.890;8.054;2023-11-21T02:04:44;9.83;;;6.83;;
8952;SDS011;4511;50.890;8.054;2023-11-21T02:07:10;11.47;;;6.10;;
8952;SDS011;4511;50.890;8.054;2023-11-21T02:09:37;9.60;;;5.97;;
8952;SDS011;4511;50.890;8.054;2023-11-21T02:12:07;13.87;;;7.90;;
8952;SDS011;4511;50.890;8.054;2023-11-21T02:14:35;11.30;;;7.97;;
8952;SDS011;4511;50.890;8.054;2023-11-21T02:17:02;9.80;;;7.07;;
8952;SDS011;4511;50.890;8.054;2023-11-21T02:19:29;10.43;;;6.57;;
8952;SDS011;4511;50.890;8.054;2023-11-21T02:21:59;10.60;;;6.37;;
8952;SDS011;4511;50.890;8.054;2023-11-21T02:24:31;7.90;;;5.43;;
8952;SDS011;4511;50.890;8.054;2023-11-21T02:26:58;6.87;;;5.77;;
8952;SDS011;4511;50.890;8.054;2023-11-21T02:29:25;9.67;;;5.77;;
8952;SDS011;4511;50.890;8.054;2023-11-21T02:31:53;10.23;;;6.23;;
8952;SDS011;4511;50.890;8.054;2023-11-21T02:34:20;6.90;;;5.67;;
8952;SDS011;4511;50.890;8.054;2023-11-21T02:36:48;10.63;;;6.37;;
8952;SDS011;4511;50.890;8.054;2023-11-21T02:39:16;10.10;;;6.20;;
8952;SDS011;4511;50.890;8.054;2023-11-21T02:41:48;9.60;;;6.80;;
8952;SDS011;4511;50.890;8.054;2023-11-21T02:44:15;10.60;;;6.17;;
8952;SDS011;4511;50.890;8.054;2023-11-21T02:46:42;12.43;;;6.30;;
8952;SDS011;4511;50.890;8.054;2023-11-21T02:49:08;8.87;;;6.07;;
8952;SDS011;4511;50.890;8.054;2023-11-21T02:51:35;8.50;;;6.13;;
8952;SDS011;4511;50.890;8.054;2023-11-21T02:54:03;7.93;;;5.90;;
8952;SDS011;4511;50.890;8.054;2023-11-21T02:56:31;7.90;;;6.07;;
8952;SDS011;4511;50.890;8.054;2023-11-21T02:59:00;9.40;;;6.50;;
8952;SDS011;4511;50.890;8.054;2023-11-21T03:01:27;12.17;;;6.23;;
8952;SDS011;4511;50.890;8.054;2023-11-21T03:03:54;7.27;;;5.87;;
8952;SDS011;4511;50.890;8.054;2023-11-21T03:06:22;7.57;;;6.33;;
8952;SDS011;4511;50.890;8.054;2023-11-21T03:08:49;9.47;;;7.50;;
8952;SDS011;4511;50.890;8.054;2023-11-21T03:11:16;8.77;;;6.30;;
8952;SDS011;4511;50.890;8.054;2023-11-21T03:13:43;8.33;;;6.70;;
8952;SDS011;4511;50.890;8.054;2023-11-21T03:16:11;16.17;;;8.07;;
8952;SDS011;4511;50.890;8.054;2023-11-21T03:18:38;13.87;;;7.57;;
8952;SDS011;4511;50.890;8.054;2023-11-21T03:21:06;12.17;;;7.37;;
8952;SDS011;4511;50.890;8.054;2023-11-21T03:23:33;17.70;;;9.70;;
8952;SDS011;4511;50.890;8.054;2023-11-21T03:26:00;11.50;;;7.70;;
8952;SDS011;4511;50.890;8.054;2023-11-21T03:28:27;12.60;;;7.97;;
8952;SDS011;4511;50.890;8.054;2023-11-21T03:30:55;10.47;;;6.93;;
8952;SDS011;4511;50.890;8.054;2023-11-21T03:33:23;9.77;;;7.10;;
8952;SDS011;4511;50.890;8.054;2023-11-21T03:35:50;9.77;;;6.17;;
8952;SDS011;4511;50.890;8.054;2023-11-21T03:38:17;7.63;;;6.50;;
8952;SDS011;4511;50.890;8.054;2023-11-21T03:40:45;12.57;;;6.57;;
8952;SDS011;4511;50.890;8.054;2023-11-21T03:43:12;10.33;;;6.87;;
8952;SDS011;4511;50.890;8.054;2023-11-21T03:45:39;10.10;;;7.40;;
8952;SDS011;4511;50.890;8.054;2023-11-21T03:48:06;9.50;;;7.33;;
8952;SDS011;4511;50.890;8.054;2023-11-21T03:50:35;9.33;;;6.20;;
8952;SDS011;4511;50.890;8.054;2023-11-21T03:53:01;8.47;;;6.30;;
8952;SDS011;4511;50.890;8.054;2023-11-21T03:55:28;8.70;;;6.87;;
8952;SDS011;4511;50.890;8.054;2023-11-21T03:57:56;7.50;;;6.27;;
8952;SDS011;4511;50.890;8.054;2023-11-21T04:00:23;12.80;;;6.27;;
8952;SDS011;4511;50.890;8.054;2023-11-21T04:02:51;13.73;;;6.80;;
8952;SDS011;4511;50.890;8.054;2023-11-21T04:05:19;10.97;;;6.30;;
8952;SDS011;4511;50.890;8.054;2023-11-21T04:07:49;10.07;;;6.20;;
8952;SDS011;4511;50.890;8.054;2023-11-21T04:10:16;8.90;;;6.27;;
8952;SDS011;4511;50.890;8.054;2023-11-21T04:12:43;8.67;;;6.70;;
8952;SDS011;4511;50.890;8.054;2023-11-21T04:15:10;10.77;;;7.13;;
8952;SDS011;4511;50.890;8.054;2023-11-21T04:17:38;12.90;;;9.00;;
8952;SDS011;4511;50.890;8.054;2023-11-21T04:20:05;12.60;;;8.80;;
8952;SDS011;4511;50.890;8.054;2023-11-21T04:22:35;18.00;;;11.17;;
8952;SDS011;4511;50.890;8.054;2023-11-21T04:25:07;19.93;;;10.10;;
8952;SDS011;4511;50.890;8.054;2023-11-21T04:27:34;17.30;;;10.40;;
8952;SDS011;4511;50.890;8.054;2023-11-21T04:30:01;9.27;;;6.33;;
8952;SDS011;4511;50.890;8.054;2023-11-21T04:32:28;8.73;;;5.07;;
8952;SDS011;4511;50.890;8.054;2023-11-21T04:34:54;8.33;;;5.03;;
8952;SDS011;4511;50.890;8.054;2023-11-21T04:37:21;9.80;;;5.87;;
8952;SDS011;4511;50.890;8.054;2023-11-21T04:39:48;14.07;;;10.43;;
8952;SDS011;4511;50.890;8.054;2023-11-21T04:42:16;12.50;;;8.63;;
8952;SDS011;4511;50.890;8.054;2023-11-21T04:44:43;17.67;;;9.13;;
8952;SDS011;4511;50.890;8.054;2023-11-21T04:47:10;14.33;;;9.80;;
8952;SDS011;4511;50.890;8.054;2023-11-21T04:49:37;15.07;;;9.20;;
8952;SDS011;4511;50.890;8.054;2023-11-21T04:52:04;8.87;;;6.47;;
8952;SDS011;4511;50.890;8.054;2023-11-21T04:54:30;8.60;;;6.87;;
8952;SDS011;4511;50.890;8.054;2023-11-21T04:56:57;10.27;;;7.23;;
8952;SDS011;4511;50.890;8.054;2023-11-21T04:59:27;13.80;;;7.97;;
8952;SDS011;4511;50.890;8.054;2023-11-21T05:01:53;16.63;;;8.73;;
8952;SDS011;4511;50.890;8.054;2023-11-21T05:04:20;12.93;;;8.60;;
8952;SDS011;4511;50.890;8.054;2023-11-21T05:06:47;14.00;;;8.30;;
8952;SDS011;4511;50.890;8.054;2023-11-21T05:09:14;17.83;;;8.27;;
8952;SDS011;4511;50.890;8.054;2023-11-21T05:11:41;11.53;;;7.40;;
8952;SDS011;4511;50.890;8.054;2023-11-21T05:14:08;13.23;;;7.63;;
8952;SDS011;4511;50.890;8.054;2023-11-21T05:16:36;10.60;;;6.70;;
8952;SDS011;4511;50.890;8.054;2023-11-21T05:19:03;12.87;;;6.63;;
8952;SDS011;4511;50.890;8.054;2023-11-21T05:21:30;11.27;;;6.67;;
8952;SDS011;4511;50.890;8.054;2023-11-21T05:23:57;10.03;;;7.37;;
8952;SDS011;4511;50.890;8.054;2023-11-21T05:26:24;12.10;;;7.73;;
8952;SDS011;4511;50.890;8.054;2023-11-21T05:28:51;12.67;;;7.23;;
8952;SDS011;4511;50.890;8.054;2023-11-21T05:31:18;14.07;;;7.87;;
8952;SDS011;4511;50.890;8.054;2023-11-21T05:33:46;14.53;;;8.17;;
8952;SDS011;4511;50.890;8.054;2023-11-21T05:36:13;12.00;;;7.50;;
8952;SDS011;4511;50.890;8.054;2023-11-21T05:38:40;15.17;;;7.77;;
8952;SDS011;4511;50.890;8.054;2023-11-21T05:41:07;13.87;;;8.57;;
8952;SDS011;4511;50.890;8.054;2023-11-21T05:43:36;13.77;;;8.47;;
8952;SDS011;4511;50.890;8.054;2023-11-21T05:46:02;17.00;;;9.37;;
8952;SDS011;4511;50.890;8.054;2023-11-21T05:48:29;13.90;;;8.13;;
8952;SDS011;4511;50.890;8.054;2023-11-21T05:50:57;12.17;;;8.50;;
8952;SDS011;4511;50.890;8.054;2023-11-21T05:53:26;12.37;;;8.70;;
8952;SDS011;4511;50.890;8.054;2023-11-21T05:55:53;14.40;;;8.87;;
8952;SDS011;4511;50.890;8.054;2023-11-21T05:58:20;13.23;;;8.50;;
8952;SDS011;4511;50.890;8.054;2023-11-21T06:00:47;15.27;;;9.70;;
8952;SDS011;4511;50.890;8.054;2023-11-21T06:03:13;15.40;;;9.67;;
8952;SDS011;4511;50.890;8.054;2023-11-21T06:05:40;18.37;;;9.87;;
8952;SDS011;4511;50.890;8.054;2023-11-21T06:08:09;21.97;;;12.33;;
8952;SDS011;4511;50.890;8.054;2023-11-21T06:10:35;17.50;;;10.57;;
8952;SDS011;4511;50.890;8.054;2023-11-21T06:13:02;12.70;;;9.50;;
8952;SDS011;4511;50.890;8.054;2023-11-21T06:15:30;13.03;;;10.00;;
8952;SDS011;4511;50.890;8.054;2023-11-21T06:17:56;15.57;;;10.03;;
8952;SDS011;4511;50.890;8.054;2023-11-21T06:20:23;21.27;;;10.60;;
8952;SDS011;4511;50.890;8.054;2023-11-21T06:22:50;15.27;;;10.83;;
8952;SDS011;4511;50.890;8.054;2023-11-21T06:25:19;15.33;;;9.80;;
8952;SDS011;4511;50.890;8.054;2023-11-21T06:27:46;13.97;;;9.97;;
8952;SDS011;4511;50.890;8.054;2023-11-21T06:30:14;15.63;;;10.00;;
8952;SDS011;4511;50.890;8.054;2023-11-21T06:32:41;14.27;;;8.97;;
8952;SDS011;4511;50.890;8.054;2023-11-21T06:35:10;26.63;;;10.97;;
8952;SDS011;4511;50.890;8.054;2023-11-21T06:37:38;19.87;;;11.43;;
8952;SDS011;4511;50.890;8.054;2023-11-21T06:40:05;14.47;;;10.43;;
8952;SDS011;4511;50.890;8.054;2023-11-21T06:42:36;16.30;;;11.23;;
8952;SDS011;4511;50.890;8.054;2023-11-21T06:45:04;20.33;;;13.20;;
8952;SDS011;4511;50.890;8.054;2023-11-21T06:47:31;16.97;;;10.10;;
8952;SDS011;4511;50.890;8.054;2023-11-21T06:49:58;19.97;;;11.37;;
8952;SDS011;4511;50.890;8.054;2023-11-21T06:52:25;18.93;;;10.30;;
8952;SDS011;4511;50.890;8.054;2023-11-21T06:54:52;17.37;;;10.73;;
8952;SDS011;4511;50.890;8.054;2023-11-21T06:57:20;19.70;;;11.80;;
8952;SDS011;4511;50.890;8.054;2023-11-21T06:59:50;20.70;;;11.93;;
8952;SDS011;4511;50.890;8.054;2023-11-21T07:02:17;14.67;;;10.30;;
8952;SDS011;4511;50.890;8.054;2023-11-21T07:04:44;15.27;;;9.73;;
8952;SDS011;4511;50.890;8.054;2023-11-21T07:07:11;14.97;;;9.73;;
8952;SDS011;4511;50.890;8.054;2023-11-21T07:09:38;15.03;;;9.87;;
8952;SDS011;4511;50.890;8.054;2023-11-21T07:12:05;15.63;;;10.10;;
8952;SDS011;4511;50.890;8.054;2023-11-21T07:14:33;16.47;;;9.23;;
8952;SDS011;4511;50.890;8.054;2023-11-21T07:17:01;15.77;;;10.77;;
8952;SDS011;4511;50.890;8.054;2023-11-21T07:19:28;15.33;;;10.10;;
8952;SDS011;4511;50.890;8.054;2023-11-21T07:21:55;14.93;;;10.63;;
8952;SDS011;4511;50.890;8.054;2023-11-21T07:24:22;19.97;;;11.53;;
8952;SDS011;4511;50.890;8.054;2023-11-21T07:26:49;24.60;;;11.53;;
8952;SDS011;4511;50.890;8.054;2023-11-21T07:29:15;18.17;;;11.57;;
8952;SDS011;4511;50.890;8.054;2023-11-21T07:31:42;17.10;;;11.47;;
8952;SDS011;4511;50.890;8.054;2023-11-21T07:34:10;15.40;;;10.90;;
8952;SDS011;4511;50.890;8.054;2023-11-21T07:36:37;18.80;;;11.77;;
8952;SDS011;4511;50.890;8.054;2023-11-21T07:39:04;21.10;;;12.80;;
8952;SDS011;4511;50.890;8.054;2023-11-21T07:41:31;28.43;;;14.70;;
8952;SDS011;4511;50.890;8.054;2023-11-21T07:43:58;20.43;;;12.87;;
8952;SDS011;4511;50.890;8.054;2023-11-21T07:46:25;22.87;;;14.23;;
8952;SDS011;4511;50.890;8.054;2023-11-21T07:48:52;25.90;;;14.43;;
8952;SDS011;4511;50.890;8.054;2023-11-21T07:51:21;22.10;;;12.30;;
8952;SDS011;4511;50.890;8.054;2023-11-21T07:53:48;23.63;;;12.20;;
8952;SDS011;4511;50.890;8.054;2023-11-21T07:56:15;26.97;;;14.27;;
8952;SDS011;4511;50.890;8.054;2023-11-21T07:58:41;25.27;;;13.23;;
8952;SDS011;4511;50.890;8.054;2023-11-21T08:01:09;21.17;;;12.90;;
8952;SDS011;4511;50.890;8.054;2023-11-21T08:03:36;17.90;;;12.73;;
8952;SDS011;4511;50.890;8.054;2023-11-21T08:06:03;18.20;;;11.90;;
8952;SDS011;4511;50.890;8.054;2023-11-21T08:08:32;22.77;;;13.37;;
8952;SDS011;4511;50.890;8.054;2023-11-21T08:10:59;37.20;;;16.77;;
8952;SDS011;4511;50.890;8.054;2023-11-21T08:13:27;52.33;;;17.13;;
8952;SDS011;4511;50.890;8.054;2023-11-21T08:15:55;53.77;;;18.67;;
8952;SDS011;4511;50.890;8.054;2023-11-21T08:18:26;191.30;;;21.30;;
8952;SDS011;4511;50.890;8.054;2023-11-21T08:20:53;278.47;;;24.00;;
8952;SDS011;4511;50.890;8.054;2023-11-21T08:23:21;211.43;;;23.13;;
8952;SDS011;4511;50.890;8.054;2023-11-21T08:25:51;42.80;;;17.33;;
8952;SDS011;4511;50.890;8.054;2023-11-21T08:28:18;177.90;;;22.23;;
8952;SDS011;4511;50.890;8.054;2023-11-21T08:30:47;215.80;;;22.50;;
8952;SDS011;4511;50.890;8.054;2023-11-21T08:33:14;214.17;;;21.87;;
8952;SDS011;4511;50.890;8.054;2023-11-21T08:35:40;113.53;;;19.83;;
8952;SDS011;4511;50.890;8.054;2023-11-21T08:38:07;67.17;;;18.50;;
8952;SDS011;4511;50.890;8.054;2023-11-21T08:40:35;55.37;;;17.00;;
8952;SDS011;4511;50.890;8.054;2023-11-21T08:43:03;34.40;;;16.63;;
8952;SDS011;4511;50.890;8.054;2023-11-21T08:45:30;44.67;;;16.80;;
8952;SDS011;4511;50.890;8.054;2023-11-21T08:47:59;23.20;;;15.87;;
8952;SDS011;4511;50.890;8.054;2023-11-21T08:50:26;33.27;;;16.90;;
8952;SDS011;4511;50.890;8.054;2023-11-21T08:52:53;29.00;;;16.90;;
8952;SDS011;4511;50.890;8.054;2023-11-21T08:55:20;40.03;;;18.57;;
8952;SDS011;4511;50.890;8.054;2023-11-21T08:57:47;28.87;;;16.23;;
8952;SDS011;4511;50.890;8.054;2023-11-21T09:00:16;37.90;;;18.60;;
8952;SDS011;4511;50.890;8.054;2023-11-21T09:02:44;35.80;;;18.53;;
8952;SDS011;4511;50.890;8.054;2023-11-21T09:05:11;34.80;;;18.50;;
8952;SDS011;4511;50.890;8.054;2023-11-21T09:07:39;30.27;;;17.53;;
8952;SDS011;4511;50.890;8.054;2023-11-21T09:10:07;26.43;;;14.37;;
8952;SDS011;4511;50.890;8.054;2023-11-21T09:12:35;14.73;;;10.40;;
8952;SDS011;4511;50.890;8.054;2023-11-21T09:15:03;15.27;;;10.50;;
8952;SDS011;4511;50.890;8.054;2023-11-21T09:17:32;12.43;;;9.33;;
8952;SDS011;4511;50.890;8.054;2023-11-21T09:20:00;15.70;;;10.70;;
8952;SDS011;4511;50.890;8.054;2023-11-21T09:22:28;24.70;;;13.63;;
8952;SDS011;4511;50.890;8.054;2023-11-21T09:24:56;14.87;;;11.17;;
8952;SDS011;4511;50.890;8.054;2023-11-21T09:27:23;17.57;;;11.77;;
8952;SDS011;4511;50.890;8.054;2023-11-21T09:29:51;18.63;;;12.40;;
8952;SDS011;4511;50.890;8.054;2023-11-21T09:32:18;17.97;;;11.50;;
8952;SDS011;4511;50.890;8.054;2023-11-21T09:34:47;16.87;;;11.50;;
8952;SDS011;4511;50.890;8.054;2023-11-21T09:37:14;15.97;;;11.73;;
8952;SDS011;4511;50.890;8.054;2023-11-21T09:39:41;16.77;;;11.47;;
8952;SDS011;4511;50.890;8.054;2023-11-21T09:42:08;16.00;;;12.30;;
8952;SDS011;4511;50.890;8.054;2023-11-21T09:44:40;20.10;;;14.43;;
8952;SDS011;4511;50.890;8.054;2023-11-21T09:47:14;30.60;;;18.30;;
8952;SDS011;4511;50.890;8.054;2023-11-21T09:49:42;25.07;;;16.20;;
8952;SDS011;4511;50.890;8.054;2023-11-21T09:52:14;22.57;;;16.83;;
8952;SDS011;4511;50.890;8.054;2023-11-21T09:54:47;25.40;;;15.73;;
8952;SDS011;4511;50.890;8.054;2023-11-21T09:57:16;26.20;;;16.10;;
8952;SDS011;4511;50.890;8.054;2023-11-21T09:59:44;27.13;;;16.60;;
8952;SDS011;4511;50.890;8.054;2023-11-21T10:02:13;23.70;;;13.93;;
8952;SDS011;4511;50.890;8.054;2023-11-21T10:04:43;20.53;;;13.10;;
8952;SDS011;4511;50.890;8.054;2023-11-21T10:07:10;20.93;;;12.87;;
8952;SDS011;4511;50.890;8.054;2023-11-21T10:09:41;15.40;;;11.27;;
8952;SDS011;4511;50.890;8.054;2023-11-21T10:12:08;18.67;;;12.50;;
8952;SDS011;4511;50.890;8.054;2023-11-21T10:14:37;16.87;;;11.80;;
8952;SDS011;4511;50.890;8.054;2023-11-21T10:17:07;18.37;;;11.27;;
8952;SDS011;4511;50.890;8.054;2023-11-21T10:19:37;15.43;;;11.10;;
8952;SDS011;4511;50.890;8.054;2023-11-21T10:22:05;15.63;;;10.17;;
8952;SDS011;4511;50.890;8.054;2023-11-21T10:24:33;18.73;;;12.27;;
8952;SDS011;4511;50.890;8.054;2023-11-21T10:27:03;17.00;;;11.23;;
8952;SDS011;4511;50.890;8.054;2023-11-21T10:29:30;18.40;;;11.43;;
8952;SDS011;4511;50.890;8.054;2023-11-21T10:32:00;14.93;;;11.53;;
8952;SDS011;4511;50.890;8.054;2023-11-21T10:34:28;16.50;;;12.30;;
8952;SDS011;4511;50.890;8.054;2023-11-21T10:36:55;16.93;;;12.13;;
8952;SDS011;4511;50.890;8.054;2023-11-21T10:39:23;17.03;;;11.43;;
8952;SDS011;4511;50.890;8.054;2023-11-21T10:41:54;18.17;;;12.10;;
8952;SDS011;4511;50.890;8.054;2023-11-21T10:44:23;17.70;;;12.63;;
8952;SDS011;4511;50.890;8.054;2023-11-21T10:46:50;17.00;;;12.10;;
8952;SDS011;4511;50.890;8.054;2023-11-21T10:49:21;16.27;;;11.77;;
8952;SDS011;4511;50.890;8.054;2023-11-21T10:51:49;18.33;;;12.00;;
8952;SDS011;4511;50.890;8.054;2023-11-21T10:54:18;20.97;;;12.93;;
8952;SDS011;4511;50.890;8.054;2023-11-21T10:56:45;18.00;;;13.13;;
8952;SDS011;4511;50.890;8.054;2023-11-21T10:59:16;18.83;;;12.70;;
8952;SDS011;4511;50.890;8.054;2023-11-21T11:01:45;19.90;;;12.60;;
8952;SDS011;4511;50.890;8.054;2023-11-21T11:04:14;16.37;;;11.90;;
8952;SDS011;4511;50.890;8.054;2023-11-21T11:06:42;18.73;;;11.83;;
8952;SDS011;4511;50.890;8.054;2023-11-21T11:09:10;19.80;;;12.00;;
8952;SDS011;4511;50.890;8.054;2023-11-21T11:11:39;20.33;;;12.30;;
8952;SDS011;4511;50.890;8.054;2023-11-21T11:14:06;19.30;;;12.73;;
8952;SDS011;4511;50.890;8.054;2023-11-21T11:16:36;23.40;;;13.30;;
8952;SDS011;4511;50.890;8.054;2023-11-21T11:19:07;19.03;;;12.20;;
8952;SDS011;4511;50.890;8.054;2023-11-21T11:21:37;22.37;;;14.00;;
8952;SDS011;4511;50.890;8.054;2023-11-21T11:24:16;22.57;;;13.93;;
8952;SDS011;4511;50.890;8.054;2023-11-21T11:26:56;27.37;;;13.77;;
8952;SDS011;4511;50.890;8.054;2023-11-21T11:29:30;24.70;;;14.90;;
8952;SDS011;4511;50.890;8.054;2023-11-21T11:32:04;23.60;;;13.73;;
8952;SDS011;4511;50.890;8.054;2023-11-21T11:34:41;23.37;;;12.67;;
8952;SDS011;4511;50.890;8.054;2023-11-21T11:37:12;19.53;;;12.03;;
8952;SDS011;4511;50.890;8.054;2023-11-21T11:39:40;18.80;;;12.83;;
8952;SDS011;4511;50.890;8.054;2023-11-21T11:42:11;21.70;;;13.23;;
8952;SDS011;4511;50.890;8.054;2023-11-21T11:44:51;19.20;;;12.50;;
8952;SDS011;4511;50.890;8.054;2023-11-21T11:47:21;24.17;;;13.47;;
8952;SDS011;4511;50.890;8.054;2023-11-21T11:50:07;21.17;;;12.30;;
8952;SDS011;4511;50.890;8.054;2023-11-21T11:52:38;19.60;;;12.90;;
8952;SDS011;4511;50.890;8.054;2023-11-21T11:55:06;20.47;;;10.93;;
8952;SDS011;4511;50.890;8.054;2023-11-21T11:57:38;17.20;;;10.93;;
8952;SDS011;4511;50.890;8.054;2023-11-21T12:00:12;20.27;;;10.73;;
8952;SDS011;4511;50.890;8.054;2023-11-21T12:02:46;15.80;;;10.87;;
8952;SDS011;4511;50.890;8.054;2023-11-21T12:05:15;16.70;;;10.50;;
8952;SDS011;4511;50.890;8.054;2023-11-21T12:07:44;14.13;;;10.57;;
8952;SDS011;4511;50.890;8.054;2023-11-21T12:10:13;16.03;;;11.00;;
8952;SDS011;4511;50.890;8.054;2023-11-21T12:12:43;19.07;;;12.33;;
8952;SDS011;4511;50.890;8.054;2023-11-21T12:15:11;16.90;;;11.73;;
8952;SDS011;4511;50.890;8.054;2023-11-21T12:17:38;17.20;;;11.00;;
8952;SDS011;4511;50.890;8.054;2023-11-21T12:20:06;20.10;;;11.20;;
8952;SDS011;4511;50.890;8.054;2023-11-21T12:22:41;16.13;;;11.23;;
8952;SDS011;4511;50.890;8.054;2023-11-21T12:25:09;15.87;;;9.93;;
8952;SDS011;4511;50.890;8.054;2023-11-21T12:27:40;18.77;;;10.33;;
8952;SDS011;4511;50.890;8.054;2023-11-21T12:30:09;11.00;;;8.73;;
8952;SDS011;4511;50.890;8.054;2023-11-21T12:32:38;16.53;;;10.00;;
8952;SDS011;4511;50.890;8.054;2023-11-21T12:35:06;15.50;;;8.97;;
8952;SDS011;4511;50.890;8.054;2023-11-21T12:37:34;13.27;;;9.30;;
8952;SDS011;4511;50.890;8.054;2023-11-21T12:40:03;13.50;;;9.27;;
8952;SDS011;4511;50.890;8.054;2023-11-21T12:42:32;14.00;;;8.87;;
8952;SDS011;4511;50.890;8.054;2023-11-21T12:45:06;15.13;;;9.20;;
8952;SDS011;4511;50.890;8.054;2023-11-21T12:47:45;17.57;;;9.37;;
8952;SDS011;4511;50.890;8.054;2023-11-21T12:50:13;14.90;;;9.73;;
8952;SDS011;4511;50.890;8.054;2023-11-21T12:52:44;14.97;;;9.47;;
8952;SDS011;4511;50.890;8.054;2023-11-21T12:55:14;18.03;;;10.33;;
8952;SDS011;4511;50.890;8.054;2023-11-21T12:57:42;17.00;;;9.10;;
8952;SDS011;4511;50.890;8.054;2023-11-21T13:00:11;16.77;;;9.17;;
8952;SDS011;4511;50.890;8.054;2023-11-21T13:02:50;10.87;;;7.77;;
8952;SDS011;4511;50.890;8.054;2023-11-21T13:05:23;14.53;;;8.53;;
8952;SDS011;4511;50.890;8.054;2023-11-21T13:07:51;15.63;;;8.37;;
8952;SDS011;4511;50.890;8.054;2023-11-21T13:10:21;14.13;;;7.97;;
8952;SDS011;4511;50.890;8.054;2023-11-21T13:12:50;13.37;;;8.07;;
8952;SDS011;4511;50.890;8.054;2023-11-21T13:15:18;14.80;;;7.37;;
8952;SDS011;4511;50.890;8.054;2023-11-21T13:17:45;12.20;;;7.00;;
8952;SDS011;4511;50.890;8.054;2023-11-21T13:20:13;13.17;;;7.53;;
8952;SDS011;4511;50.890;8.054;2023-11-21T13:22:45;14.33;;;7.43;;
8952;SDS011;4511;50.890;8.054;2023-11-21T13:25:17;12.27;;;6.93;;
8952;SDS011;4511;50.890;8.054;2023-11-21T13:27:46;13.03;;;6.57;;
8952;SDS011;4511;50.890;8.054;2023-11-21T13:30:13;9.73;;;6.97;;
8952;SDS011;4511;50.890;8.054;2023-11-21T13:32:41;9.07;;;6.87;;
8952;SDS011;4511;50.890;8.054;2023-11-21T13:35:09;12.63;;;7.77;;
8952;SDS011;4511;50.890;8.054;2023-11-21T13:37:45;12.07;;;7.20;;
8952;SDS011;4511;50.890;8.054;2023-11-21T13:40:14;10.97;;;7.20;;
8952;SDS011;4511;50.890;8.054;2023-11-21T13:42:46;11.50;;;7.10;;
8952;SDS011;4511;50.890;8.054;2023-11-21T13:45:13;9.30;;;6.17;;
8952;SDS011;4511;50.890;8.054;2023-11-21T13:47:41;8.97;;;5.70;;
8952;SDS011;4511;50.890;8.054;2023-11-21T13:50:10;10.30;;;5.87;;
8952;SDS011;4511;50.890;8.054;2023-11-21T13:52:42;11.90;;;6.37;;
8952;SDS011;4511;50.890;8.054;2023-11-21T13:55:10;13.47;;;7.20;;
8952;SDS011;4511;50.890;8.054;2023-11-21T13:57:40;12.37;;;7.00;;
8952;SDS011;4511;50.890;8.054;2023-11-21T14:00:12;12.13;;;7.00;;
8952;SDS011;4511;50.890;8.054;2023-11-21T14:02:59;12.80;;;7.50;;
8952;SDS011;4511;50.890;8.054;2023-11-21T14:05:31;10.53;;;6.27;;
8952;SDS011;4511;50.890;8.054;2023-11-21T14:07:58;11.67;;;6.70;;
8952;SDS011;4511;50.890;8.054;2023-11-21T14:10:29;10.67;;;6.70;;
8952;SDS011;4511;50.890;8.054;2023-11-21T14:13:02;10.60;;;6.30;;
8952;SDS011;4511;50.890;8.054;2023-11-21T14:15:32;9.50;;;6.40;;
8952;SDS011;4511;50.890;8.054;2023-11-21T14:18:03;9.17;;;6.13;;
8952;SDS011;4511;50.890;8.054;2023-11-21T14:20:32;11.90;;;7.80;;
8952;SDS011;4511;50.890;8.054;2023-11-21T14:23:01;8.27;;;6.23;;
8952;SDS011;4511;50.890;8.054;2023-11-21T14:25:31;9.97;;;7.40;;
8952;SDS011;4511;50.890;8.054;2023-11-21T14:27:58;11.83;;;6.73;;
8952;SDS011;4511;50.890;8.054;2023-11-21T14:30:25;13.70;;;9.07;;
8952;SDS011;4511;50.890;8.054;2023-11-21T14:32:55;10.83;;;8.30;;
8952;SDS011;4511;50.890;8.054;2023-11-21T14:35:22;10.80;;;7.27;;
8952;SDS011;4511;50.890;8.054;2023-11-21T14:37:48;13.03;;;8.53;;
8952;SDS011;4511;50.890;8.054;2023-11-21T14:40:16;10.37;;;6.97;;
8952;SDS011;4511;50.890;8.054;2023-11-21T14:42:46;8.60;;;6.23;;
8952;SDS011;4511;50.890;8.054;2023-11-21T14:45:13;8.30;;;5.77;;
8952;SDS011;4511;50.890;8.054;2023-11-21T14:47:44;6.50;;;5.90;;
8952;SDS011;4511;50.890;8.054;2023-11-21T14:50:19;7.33;;;5.57;;
8952;SDS011;4511;50.890;8.054;2023-11-21T14:53:08;9.10;;;6.97;;
8952;SDS011;4511;50.890;8.054;2023-11-21T14:55:37;8.17;;;6.50;;
8952;SDS011;4511;50.890;8.054;2023-11-21T14:58:17;7.63;;;5.80;;
8952;SDS011;4511;50.890;8.054;2023-11-21T15:00:51;6.10;;;5.53;;
8952;SDS011;4511;50.890;8.054;2023-11-21T15:03:23;7.40;;;6.43;;
8952;SDS011;4511;50.890;8.054;2023-11-21T15:06:09;5.80;;;5.20;;